createdAt,value
2019-04-07T00:01:51.859Z,19.77
2019-04-07T00:06:54.462Z,19.10
2019-04-07T00:11:56.587Z,19.02
2019-04-07T00:16:58.605Z,20.17
2019-04-07T00:22:00.869Z,18.12
2019-04-07T00:27:03.543Z,19.40
2019-04-07T00:32:06.363Z,19.87
2019-04-07T00:37:08.407Z,19.25
2019-04-07T00:42:10.502Z,19.00
2019-04-07T00:47:13.042Z,20.65
2019-04-07T00:52:16.187Z,19.05
2019-04-07T00:57:18.303Z,19.90
2019-04-07T01:02:21.254Z,19.27
2019-04-07T01:07:23.423Z,20.12
2019-04-07T01:12:25.680Z,20.35
2019-04-07T01:17:27.929Z,19.20
2019-04-07T01:22:30.030Z,20.15
2019-04-07T01:27:32.074Z,19.95
2019-04-07T01:32:34.617Z,19.00
2019-04-07T01:37:36.839Z,18.77
2019-04-07T01:43:04.286Z,19.10
2019-04-07T01:48:14.889Z,17.70
2019-04-07T01:53:44.670Z,18.48
2019-04-07T01:58:56.290Z,17.05
2019-04-07T02:04:16.088Z,18.10
2019-04-07T02:09:24.824Z,18.92
2019-04-07T02:14:45.587Z,18.15
2019-04-07T02:20:16.774Z,17.75
2019-04-07T02:25:27.223Z,18.42
2019-04-07T02:30:48.070Z,17.35
2019-04-07T02:36:21.341Z,16.32
2019-04-07T02:41:48.667Z,16.80
2019-04-07T02:47:09.857Z,16.57
2019-04-07T02:52:37.530Z,16.42
2019-04-07T02:57:54.764Z,16.32
2019-04-07T03:03:24.852Z,17.17
2019-04-07T03:08:40.388Z,16.80
2019-04-07T03:14:14.316Z,16.25
2019-04-07T03:19:25.578Z,15.90
2019-04-07T03:24:48.480Z,16.15
2019-04-07T03:30:09.473Z,16.25
2019-04-07T03:35:19.779Z,15.90
2019-04-07T03:40:30.963Z,15.23
2019-04-07T03:45:38.912Z,15.43
2019-04-07T03:50:54.783Z,15.08
2019-04-07T03:56:04.362Z,14.90
2019-04-07T04:01:33.160Z,13.05
2019-04-07T04:06:54.726Z,14.18
2019-04-07T04:12:12.599Z,13.80
2019-04-07T04:17:14.698Z,14.53
2019-04-07T04:22:16.804Z,14.35
2019-04-07T04:27:18.883Z,14.38
2019-04-07T04:32:21.969Z,16.25
2019-04-07T04:37:37.627Z,15.55
2019-04-07T04:42:29.053Z,16.07
2019-04-07T04:47:31.531Z,16.57
2019-04-07T04:52:33.576Z,16.05
2019-04-07T04:57:35.575Z,15.72
2019-04-07T05:02:38.253Z,17.17
2019-04-07T05:07:49.895Z,16.50
2019-04-07T05:12:44.601Z,17.12
2019-04-07T05:17:47.131Z,17.07
2019-04-07T05:22:49.325Z,15.53
2019-04-07T05:27:51.406Z,15.98
2019-04-07T05:32:53.520Z,14.33
2019-04-07T05:38:02.668Z,14.40
2019-04-07T05:42:59.901Z,14.78
2019-04-07T05:48:02.044Z,14.45
2019-04-07T05:53:04.240Z,14.83
2019-04-07T05:58:08.353Z,13.58
2019-04-07T06:03:11.197Z,14.43
2019-04-07T06:08:26.864Z,14.87
2019-04-07T06:13:17.651Z,13.55
2019-04-07T06:18:19.760Z,12.53
2019-04-07T06:23:23.309Z,12.88
2019-04-07T06:28:26.644Z,12.37
2019-04-07T06:33:29.848Z,12.33
2019-04-07T06:38:34.938Z,11.65
2019-04-07T06:43:38.366Z,10.95
2019-04-07T06:49:00.410Z,11.25
2019-04-07T06:54:24.536Z,10.63
2019-04-07T06:59:49.063Z,10.38
2019-04-07T07:05:08.543Z,10.82
2019-04-07T07:10:42.963Z,9.25
2019-04-07T07:16:17.433Z,9.48
2019-04-07T07:21:39.623Z,8.73
2019-04-07T07:26:41.878Z,8.85
2019-04-07T07:31:43.922Z,9.00
2019-04-07T07:36:46.680Z,8.70
2019-04-07T07:41:51.849Z,8.15
2019-04-07T07:46:53.940Z,8.10
2019-04-07T07:51:56.067Z,7.70
2019-04-07T07:56:58.137Z,7.78
2019-04-07T08:02:01.388Z,7.55
2019-04-07T08:07:03.418Z,7.10
2019-04-07T08:12:06.173Z,7.03
2019-04-07T08:17:08.546Z,7.30
2019-04-07T08:22:11.591Z,7.33
2019-04-07T08:27:13.965Z,7.35
2019-04-07T08:32:16.539Z,6.62
2019-04-07T08:37:19.070Z,6.30
2019-04-07T08:42:21.178Z,6.33
2019-04-07T08:47:23.488Z,6.60
2019-04-07T08:52:26.007Z,7.35
2019-04-07T08:57:30.529Z,6.40
2019-04-07T09:02:32.287Z,7.12
2019-04-07T09:07:35.020Z,6.42
2019-04-07T09:12:37.130Z,6.00
2019-04-07T09:17:47.446Z,6.97
2019-04-07T09:22:57.013Z,6.15
2019-04-07T09:28:21.186Z,6.08
2019-04-07T09:33:33.700Z,5.35
2019-04-07T09:38:57.014Z,5.03
2019-04-07T09:44:19.905Z,4.28
2019-04-07T09:49:30.002Z,4.65
2019-04-07T09:54:54.420Z,4.35
2019-04-07T10:00:23.215Z,3.80
2019-04-07T10:05:43.828Z,3.15
2019-04-07T10:11:04.276Z,3.20
2019-04-07T10:16:25.934Z,3.05
2019-04-07T10:21:50.931Z,2.83
2019-04-07T10:27:04.137Z,2.87
2019-04-07T10:32:26.858Z,2.52
2019-04-07T10:37:51.315Z,2.65
2019-04-07T10:43:00.734Z,2.87
2019-04-07T10:48:34.703Z,2.33
2019-04-07T10:53:56.216Z,2.35
2019-04-07T10:59:24.068Z,2.27
2019-04-07T11:04:48.436Z,2.67
2019-04-07T11:10:09.687Z,2.40
2019-04-07T11:15:30.580Z,2.37
2019-04-07T11:20:47.258Z,2.17
2019-04-07T11:26:18.324Z,1.90
2019-04-07T11:31:38.546Z,2.20
2019-04-07T11:36:59.488Z,2.55
2019-04-07T11:42:20.348Z,2.50
2019-04-07T11:47:41.683Z,2.08
2019-04-07T11:52:52.864Z,2.10
2019-04-07T11:58:17.723Z,1.80
2019-04-07T12:03:52.602Z,1.90
2019-04-07T12:09:20.606Z,2.10
2019-04-07T12:14:43.028Z,1.85
2019-04-07T12:20:00.147Z,1.90
2019-04-07T12:25:40.293Z,2.17
2019-04-07T12:31:20.020Z,1.70
2019-04-07T12:36:40.905Z,1.92
2019-04-07T12:42:05.192Z,2.08
2019-04-07T12:47:25.682Z,2.30
2019-04-07T12:52:36.715Z,2.00
2019-04-07T12:58:02.063Z,2.42
2019-04-07T13:03:39.285Z,1.70
2019-04-07T13:08:51.928Z,1.87
2019-04-07T13:14:23.256Z,1.90
2019-04-07T13:19:46.726Z,1.90
2019-04-07T13:25:07.794Z,2.30
2019-04-07T13:30:28.754Z,2.17
2019-04-07T13:35:48.970Z,1.87
2019-04-07T13:41:18.612Z,2.08
2019-04-07T13:46:36.189Z,1.82
2019-04-07T13:57:30.715Z,2.10
2019-04-07T14:02:58.926Z,1.85
2019-04-07T14:08:19.929Z,1.75
2019-04-07T14:13:33.786Z,1.80
2019-04-07T14:18:54.359Z,1.70
2019-04-07T14:24:34.275Z,1.95
2019-04-07T14:29:58.479Z,1.80
2019-04-07T14:35:19.481Z,2.08
2019-04-07T14:40:33.461Z,2.10
2019-04-07T14:45:51.495Z,2.52
2019-04-07T14:51:29.466Z,2.37
2019-04-07T14:57:00.991Z,2.17
2019-04-07T15:02:04.159Z,2.40
2019-04-07T15:07:34.700Z,2.05
2019-04-07T15:12:44.283Z,1.80
2019-04-07T15:17:46.553Z,1.92
2019-04-07T15:22:49.475Z,2.05
2019-04-07T15:27:52.741Z,1.67
2019-04-07T15:32:58.603Z,2.80
2019-04-07T15:37:59.621Z,2.10
2019-04-07T15:43:04.736Z,2.05
2019-04-07T15:48:05.612Z,3.00
2019-04-07T15:53:07.650Z,5.30
2019-04-07T15:58:10.567Z,2.47
2019-04-07T16:03:15.256Z,2.60
2019-04-07T16:08:18.066Z,2.10
2019-04-07T16:13:20.358Z,2.00
2019-04-07T16:18:23.179Z,2.05
2019-04-07T16:23:26.193Z,2.65
2019-04-07T16:28:28.472Z,2.20
2019-04-07T16:33:33.980Z,1.87
2019-04-07T16:38:35.323Z,1.92
2019-04-07T16:43:37.973Z,1.75
2019-04-07T16:48:40.380Z,1.87
2019-04-07T16:53:43.326Z,2.02
2019-04-07T16:58:46.393Z,2.08
2019-04-07T17:03:48.815Z,1.90
2019-04-07T17:08:52.227Z,2.00
2019-04-07T17:13:55.826Z,2.25
2019-04-07T17:18:58.757Z,2.22
2019-04-07T17:24:01.343Z,2.42
2019-04-07T17:29:04.377Z,2.27
2019-04-07T17:34:09.757Z,2.58
2019-04-07T17:39:36.925Z,3.12
2019-04-07T17:45:10.284Z,3.05
2019-04-07T17:50:31.680Z,2.72
2019-04-07T17:55:52.753Z,2.52
2019-04-07T18:01:09.637Z,2.67
2019-04-07T18:06:19.684Z,2.75
2019-04-07T18:11:40.198Z,2.55
2019-04-07T18:17:08.609Z,2.80
2019-04-07T18:22:23.374Z,3.00
2019-04-07T18:27:48.678Z,3.25
2019-04-07T18:33:22.786Z,3.80
2019-04-07T18:38:46.851Z,4.00
2019-04-07T18:44:08.402Z,3.52
2019-04-07T18:49:37.642Z,3.30
2019-04-07T18:55:11.558Z,3.42
2019-04-07T19:00:43.442Z,3.42
2019-04-07T19:06:23.693Z,3.85
2019-04-07T19:11:41.610Z,4.55
2019-04-07T19:16:57.364Z,4.72
2019-04-07T19:22:08.922Z,4.92
2019-04-07T19:27:40.572Z,5.12
2019-04-07T19:33:05.905Z,4.33
2019-04-07T19:38:30.663Z,4.70
2019-04-07T19:43:45.802Z,4.22
2019-04-07T19:49:07.868Z,4.85
2019-04-07T19:54:29.744Z,4.62
2019-04-07T19:59:54.967Z,4.20
2019-04-07T20:05:19.818Z,4.35
2019-04-07T20:10:33.745Z,4.10
2019-04-07T20:15:45.136Z,4.47
2019-04-07T20:21:15.891Z,5.45
2019-04-07T20:26:36.989Z,5.03
2019-04-07T20:31:53.712Z,5.05
2019-04-07T20:37:12.883Z,5.20
2019-04-07T20:42:27.000Z,5.35
2019-04-07T20:47:40.986Z,5.37
2019-04-07T20:52:53.465Z,4.95
2019-04-07T20:58:22.043Z,4.97
2019-04-07T21:03:38.535Z,5.58
2019-04-07T21:08:47.538Z,5.03
2019-04-07T21:14:07.825Z,5.12
2019-04-07T21:19:29.482Z,4.40
2019-04-07T21:24:49.698Z,5.47
2019-04-07T21:30:12.927Z,5.53
2019-04-07T21:35:36.905Z,5.42
2019-04-07T21:41:08.205Z,5.28
2019-04-07T21:46:22.413Z,4.85
2019-04-07T21:51:46.624Z,4.35
2019-04-07T21:57:17.264Z,5.50
2019-04-07T22:02:40.615Z,5.80
2019-04-07T22:08:03.689Z,5.30
2019-04-07T22:13:06.596Z,5.67
2019-04-07T22:18:08.994Z,5.97
2019-04-07T22:23:12.563Z,5.58
2019-04-07T22:28:14.989Z,5.20
2019-04-07T22:33:17.930Z,5.30
2019-04-07T22:38:23.090Z,5.75
2019-04-07T22:43:24.942Z,6.50
2019-04-07T22:48:28.187Z,6.97
2019-04-07T22:53:31.503Z,6.83
2019-04-07T22:58:33.769Z,7.67
2019-04-07T23:03:35.884Z,7.22
2019-04-07T23:08:37.900Z,7.70
2019-04-07T23:13:39.979Z,7.78
2019-04-07T23:18:42.409Z,8.18
2019-04-07T23:23:44.638Z,7.35
2019-04-07T23:28:47.222Z,8.55
2019-04-07T23:33:50.188Z,9.65
2019-04-07T23:38:52.279Z,10.80
2019-04-07T23:43:54.286Z,11.68
2019-04-07T23:48:56.303Z,12.28
2019-04-07T23:54:09.372Z,16.55
2019-04-07T23:59:11.938Z,17.30
